createdAt,value
2018-03-19T00:00:42.343Z,-1.23
2018-03-19T00:03:10.728Z,-1.01
2018-03-19T00:05:39.116Z,-2.15
2018-03-19T00:08:07.557Z,-2.66
2018-03-19T00:10:35.976Z,-2.31
2018-03-19T00:13:04.516Z,-2.23
2018-03-19T00:15:32.986Z,-2.68
2018-03-19T00:18:01.471Z,-3.23
2018-03-19T00:20:29.884Z,-3.62
2018-03-19T00:22:58.451Z,-3.49
2018-03-19T00:25:26.854Z,-2.49
2018-03-19T00:27:55.381Z,-3.07
2018-03-19T00:30:23.848Z,-2.87
2018-03-19T00:32:52.248Z,-3.42
2018-03-19T00:35:20.676Z,-3.16
2018-03-19T00:37:49.143Z,-2.74
2018-03-19T00:40:17.552Z,-2.81
2018-03-19T00:42:45.985Z,-2.19
2018-03-19T00:45:14.455Z,-2.85
2018-03-19T00:47:42.901Z,-2.31
2018-03-19T00:50:11.319Z,-3.00
2018-03-19T00:52:39.703Z,-2.76
2018-03-19T00:55:08.114Z,-2.35
2018-03-19T00:57:36.575Z,-2.85
2018-03-19T01:00:04.987Z,-2.05
2018-03-19T01:02:33.403Z,-2.52
2018-03-19T01:05:02.057Z,-2.00
2018-03-19T01:07:30.464Z,-2.13
2018-03-19T01:09:58.880Z,-2.36
2018-03-19T01:12:27.436Z,-3.67
2018-03-19T01:14:55.853Z,-2.27
2018-03-19T01:17:24.274Z,-2.51
2018-03-19T01:19:52.737Z,-2.78
2018-03-19T01:22:21.133Z,-2.02
2018-03-19T01:24:49.799Z,-2.18
2018-03-19T01:27:18.200Z,-2.66
2018-03-19T01:29:46.676Z,-2.31
2018-03-19T01:32:15.072Z,-2.54
2018-03-19T01:34:43.472Z,-3.19
2018-03-19T01:37:11.928Z,-2.73
2018-03-19T01:39:40.327Z,-2.28
2018-03-19T01:42:08.711Z,-2.51
2018-03-19T01:44:37.190Z,-3.43
2018-03-19T01:47:05.599Z,-4.03
2018-03-19T01:49:34.012Z,-2.86
2018-03-19T01:52:02.628Z,-3.65
2018-03-19T01:54:31.019Z,-3.90
2018-03-19T01:56:59.427Z,-2.72
2018-03-19T01:59:28.001Z,-2.39
2018-03-19T02:01:56.418Z,-2.37
2018-03-19T02:04:24.887Z,-3.13
2018-03-19T02:06:53.321Z,-2.85
2018-03-19T02:09:21.788Z,-2.85
2018-03-19T02:11:50.182Z,-2.96
2018-03-19T02:14:18.723Z,-2.24
2018-03-19T02:16:47.132Z,-2.67
2018-03-19T02:19:15.563Z,-2.28
2018-03-19T02:21:43.952Z,-3.24
2018-03-19T02:24:12.339Z,-3.03
2018-03-19T02:26:40.828Z,-2.61
2018-03-19T02:29:09.235Z,-2.65
2018-03-19T02:31:37.711Z,-3.71
2018-03-19T02:34:06.170Z,-2.61
2018-03-19T02:36:34.564Z,-3.04
2018-03-19T02:39:03.026Z,-2.48
2018-03-19T02:41:31.451Z,-3.74
2018-03-19T02:43:59.873Z,-2.55
2018-03-19T02:46:28.349Z,-2.56
2018-03-19T02:48:56.749Z,-2.96
2018-03-19T02:51:25.173Z,-2.46
2018-03-19T02:53:53.619Z,-3.59
2018-03-19T02:56:22.053Z,-3.39
2018-03-19T02:58:50.444Z,-2.53
2018-03-19T03:01:18.899Z,-3.03
2018-03-19T03:03:47.318Z,-3.17
2018-03-19T03:06:15.774Z,-2.70
2018-03-19T03:08:44.170Z,-3.36
2018-03-19T03:11:12.562Z,-3.18
2018-03-19T03:13:41.232Z,-3.18
2018-03-19T03:16:09.704Z,-2.42
2018-03-19T03:18:38.100Z,-3.10
2018-03-19T03:21:06.514Z,-2.77
2018-03-19T03:23:34.933Z,-3.64
2018-03-19T03:26:03.395Z,-3.65
2018-03-19T03:28:31.788Z,-3.26
2018-03-19T03:31:00.189Z,-3.47
2018-03-19T03:33:28.677Z,-2.79
2018-03-19T03:35:57.073Z,-3.54
2018-03-19T03:38:25.557Z,-2.94
2018-03-19T03:40:53.961Z,-2.70
2018-03-19T03:43:22.360Z,-2.84
2018-03-19T03:45:50.766Z,-3.27
2018-03-19T03:48:19.163Z,-2.81
2018-03-19T03:50:47.691Z,-2.72
2018-03-19T03:53:16.088Z,-1.85
2018-03-19T03:55:44.564Z,-2.67
2018-03-19T03:58:12.966Z,-2.52
2018-03-19T04:00:41.435Z,-2.90
2018-03-19T04:03:09.819Z,-3.11
2018-03-19T04:05:38.268Z,-3.12
2018-03-19T04:08:06.653Z,-3.11
2018-03-19T04:10:35.046Z,-2.92
2018-03-19T04:13:03.456Z,-3.06
2018-03-19T04:15:31.839Z,-3.59
2018-03-19T04:18:00.636Z,-2.58
2018-03-19T04:20:29.055Z,-3.79
2018-03-19T04:22:57.454Z,-2.66
2018-03-19T04:25:25.868Z,-2.29
2018-03-19T04:27:54.322Z,-2.87
2018-03-19T04:30:22.815Z,-2.92
2018-03-19T04:32:51.209Z,-2.96
2018-03-19T04:35:19.614Z,-2.81
2018-03-19T04:37:48.017Z,-3.60
2018-03-19T04:40:16.415Z,-3.02
2018-03-19T04:42:44.863Z,-3.42
2018-03-19T04:45:13.269Z,-3.27
2018-03-19T04:47:41.650Z,-3.43
2018-03-19T04:50:10.042Z,-4.04
2018-03-19T04:52:38.484Z,-3.68
2018-03-19T04:55:07.551Z,-4.10
2018-03-19T04:57:35.946Z,-3.44
2018-03-19T05:00:04.449Z,-4.04
2018-03-19T05:02:32.852Z,-3.67
2018-03-19T05:05:01.232Z,-3.00
2018-03-19T05:07:29.688Z,-3.11
2018-03-19T05:09:58.086Z,-2.97
2018-03-19T05:12:26.497Z,-3.25
2018-03-19T05:14:54.917Z,-2.86
2018-03-19T05:17:23.331Z,-3.92
2018-03-19T05:19:51.791Z,-3.35
2018-03-19T05:22:20.197Z,-3.24
2018-03-19T05:24:48.600Z,-3.30
2018-03-19T05:27:17.004Z,-2.48
2018-03-19T05:29:45.424Z,-3.00
2018-03-19T05:32:13.875Z,-3.33
2018-03-19T05:34:42.327Z,-3.76
2018-03-19T05:37:10.750Z,-3.69
2018-03-19T05:39:39.161Z,-3.72
2018-03-19T05:42:07.548Z,-3.93
2018-03-19T05:44:35.986Z,-4.66
2018-03-19T05:47:04.376Z,-3.85
2018-03-19T05:49:32.828Z,-4.04
2018-03-19T05:52:01.220Z,-3.77
2018-03-19T05:54:29.679Z,-4.62
2018-03-19T05:56:58.088Z,-4.01
2018-03-19T05:59:26.518Z,-3.60
2018-03-19T06:01:54.922Z,-2.38
2018-03-19T06:04:23.310Z,-4.10
2018-03-19T06:06:51.819Z,-4.21
2018-03-19T06:09:20.335Z,-2.94
2018-03-19T06:11:48.743Z,-3.43
2018-03-19T06:14:17.157Z,-3.68
2018-03-19T06:16:45.539Z,-3.24
2018-03-19T06:19:14.942Z,-2.53
2018-03-19T06:21:43.357Z,-3.70
2018-03-19T06:24:11.787Z,-4.28
2018-03-19T06:26:40.348Z,-4.18
2018-03-19T06:29:09.085Z,-4.59
2018-03-19T06:31:37.645Z,-3.52
2018-03-19T06:34:06.091Z,-3.65
2018-03-19T06:36:34.592Z,-3.25
2018-03-19T06:39:03.051Z,-3.12
2018-03-19T06:41:31.489Z,-3.09
2018-03-19T06:44:00.029Z,-1.46
2018-03-19T06:46:28.463Z,-1.53
2018-03-19T06:48:56.872Z,-0.87
2018-03-19T06:51:25.286Z,0.17
2018-03-19T06:53:53.685Z,0.63
2018-03-19T06:56:22.170Z,1.44
2018-03-19T06:58:50.572Z,0.91
2018-03-19T07:01:18.986Z,2.15
2018-03-19T07:03:47.477Z,1.03
2018-03-19T07:06:15.985Z,3.33
2018-03-19T07:08:44.361Z,3.28
2018-03-19T07:11:12.760Z,3.37
2018-03-19T07:13:41.220Z,2.03
2018-03-19T07:16:09.673Z,3.82
2018-03-19T07:18:38.111Z,3.20
2018-03-19T07:21:06.513Z,4.39
2018-03-19T07:23:35.060Z,2.95
2018-03-19T07:26:03.485Z,3.72
2018-03-19T07:28:31.887Z,2.67
2018-03-19T07:31:00.294Z,2.15
2018-03-19T07:33:28.703Z,2.64
2018-03-19T07:35:57.421Z,3.24
2018-03-19T07:38:25.851Z,2.14
2018-03-19T07:40:54.309Z,1.63
2018-03-19T07:43:22.771Z,0.94
2018-03-19T07:45:51.223Z,1.09
2018-03-19T07:48:19.651Z,0.96
2018-03-19T07:50:48.088Z,1.35
2018-03-19T07:53:16.527Z,2.83
2018-03-19T07:55:45.013Z,3.04
2018-03-19T07:58:13.496Z,2.15
2018-03-19T08:00:41.897Z,2.45
2018-03-19T08:03:10.431Z,2.89
2018-03-19T08:05:38.981Z,2.40
2018-03-19T08:08:07.526Z,3.10
2018-03-19T08:10:36.031Z,3.31
2018-03-19T08:13:04.469Z,1.89
2018-03-19T08:15:32.923Z,4.98
2018-03-19T08:18:01.329Z,5.14
2018-03-19T08:20:29.808Z,5.05
2018-03-19T08:22:58.202Z,7.30
2018-03-19T08:25:26.633Z,7.12
2018-03-19T08:27:55.074Z,6.96
2018-03-19T08:30:23.480Z,5.84
2018-03-19T08:32:52.064Z,5.05
2018-03-19T08:35:20.606Z,6.75
2018-03-19T08:37:48.996Z,7.71
2018-03-19T08:40:17.388Z,7.74
2018-03-19T08:42:45.815Z,7.83
2018-03-19T08:45:14.375Z,8.87
2018-03-19T08:47:42.872Z,8.04
2018-03-19T08:50:11.290Z,8.42
2018-03-19T08:52:39.711Z,5.34
2018-03-19T08:55:08.116Z,5.56
2018-03-19T08:57:36.516Z,5.85
2018-03-19T09:00:05.418Z,6.51
2018-03-19T09:02:34.183Z,6.83
2018-03-19T09:05:02.592Z,8.32
2018-03-19T09:07:30.992Z,9.40
2018-03-19T09:09:59.396Z,9.01
2018-03-19T09:12:27.805Z,7.77
2018-03-19T09:14:56.255Z,8.57
2018-03-19T09:17:24.716Z,10.11
2018-03-19T09:19:53.161Z,11.08
2018-03-19T09:22:21.550Z,10.60
2018-03-19T09:24:49.936Z,13.04
2018-03-19T09:27:18.402Z,11.87
2018-03-19T09:29:46.804Z,13.29
2018-03-19T09:32:15.224Z,12.90
2018-03-19T09:34:43.639Z,11.67
2018-03-19T09:37:12.072Z,13.28
2018-03-19T09:39:40.546Z,12.94
2018-03-19T09:42:09.029Z,13.42
2018-03-19T09:44:37.432Z,13.44
2018-03-19T09:47:05.862Z,12.12
2018-03-19T09:49:34.275Z,12.16
2018-03-19T09:52:02.735Z,12.92
2018-03-19T09:54:31.152Z,13.29
2018-03-19T09:56:59.535Z,11.08
2018-03-19T09:59:27.968Z,12.97
2018-03-19T10:01:56.367Z,13.58
2018-03-19T10:04:24.834Z,15.58
2018-03-19T10:06:53.234Z,13.39
2018-03-19T10:09:21.637Z,12.92
2018-03-19T10:11:50.067Z,11.28
2018-03-19T10:14:18.486Z,10.53
2018-03-19T10:16:47.251Z,12.37
2018-03-19T10:19:15.717Z,11.80
2018-03-19T10:21:44.178Z,13.31
2018-03-19T10:24:12.577Z,10.96
2018-03-19T10:26:40.990Z,11.79
2018-03-19T10:29:09.443Z,10.96
2018-03-19T10:31:38.008Z,13.05
2018-03-19T10:34:06.513Z,13.91
2018-03-19T10:36:34.921Z,13.12
2018-03-19T10:39:03.356Z,11.80
2018-03-19T10:41:31.929Z,12.08
2018-03-19T10:44:00.347Z,11.90
2018-03-19T10:46:28.779Z,12.30
2018-03-19T10:48:57.192Z,11.69
2018-03-19T10:51:25.616Z,11.93
2018-03-19T10:53:54.099Z,11.67
2018-03-19T10:56:22.490Z,13.93
2018-03-19T10:58:50.904Z,12.77
2018-03-19T11:04:23.619Z,13.28
2018-03-19T11:06:52.006Z,11.91
2018-03-19T11:09:26.185Z,12.92
2018-03-19T11:11:54.675Z,11.28
2018-03-19T11:14:23.071Z,11.94
2018-03-19T11:16:51.509Z,10.05
2018-03-19T11:19:19.904Z,11.30
2018-03-19T11:21:48.332Z,10.99
2018-03-19T11:24:16.802Z,9.20
2018-03-19T11:26:45.252Z,10.44
2018-03-19T11:29:13.674Z,12.60
2018-03-19T11:31:42.092Z,13.47
2018-03-19T11:34:10.556Z,13.36
2018-03-19T11:36:38.967Z,12.22
2018-03-19T11:39:07.368Z,12.86
2018-03-19T11:41:35.797Z,13.11
2018-03-19T11:44:04.177Z,14.57
2018-03-19T11:46:32.587Z,12.82
2018-03-19T11:49:00.995Z,12.84
2018-03-19T11:51:29.453Z,11.76
2018-03-19T11:53:57.860Z,12.20
2018-03-19T11:56:26.280Z,12.00
2018-03-19T11:58:54.775Z,11.94
2018-03-19T12:01:23.348Z,12.44
2018-03-19T12:03:51.812Z,12.21
2018-03-19T12:06:20.276Z,11.66
2018-03-19T12:08:48.738Z,11.90
2018-03-19T12:11:17.147Z,11.55
2018-03-19T12:13:45.619Z,11.71
2018-03-19T12:16:14.151Z,12.06
2018-03-19T12:18:42.712Z,12.65
2018-03-19T12:21:11.179Z,11.39
2018-03-19T12:23:39.641Z,11.73
2018-03-19T12:26:08.105Z,11.99
2018-03-19T12:28:36.586Z,12.75
2018-03-19T12:31:05.042Z,11.88
2018-03-19T12:33:33.550Z,11.49
2018-03-19T12:36:02.029Z,12.46
2018-03-19T12:38:30.530Z,12.57
2018-03-19T12:40:59.024Z,12.24
2018-03-19T12:49:34.482Z,8.03
2018-03-19T12:52:02.896Z,7.42
2018-03-19T13:00:42.182Z,7.37
2018-03-19T13:03:10.598Z,6.10
2018-03-19T13:05:39.032Z,7.44
2018-03-19T13:08:07.514Z,6.54
2018-03-19T13:10:35.959Z,6.82
2018-03-19T13:13:04.436Z,6.83
2018-03-19T13:15:32.868Z,7.08
2018-03-19T13:18:01.421Z,6.63
2018-03-19T13:20:30.133Z,6.93
2018-03-19T13:22:59.507Z,7.22
2018-03-19T13:25:28.012Z,7.05
2018-03-19T13:36:24.684Z,6.01
2018-03-19T13:38:56.672Z,6.49
2018-03-19T13:41:25.153Z,6.14
2018-03-19T13:43:53.563Z,5.90
2018-03-19T13:46:22.079Z,6.12
2018-03-19T13:48:50.464Z,5.34
2018-03-19T13:51:18.905Z,6.00
2018-03-19T13:53:48.381Z,5.56
2018-03-19T13:56:16.983Z,5.66
2018-03-19T13:58:45.403Z,6.16
2018-03-19T14:01:14.170Z,6.52
2018-03-19T14:03:42.586Z,6.24
2018-03-19T14:06:11.044Z,6.06
2018-03-19T14:08:39.534Z,6.65
2018-03-19T14:11:07.956Z,5.84
2018-03-19T14:13:36.385Z,5.48
2018-03-19T14:16:04.821Z,5.74
2018-03-19T14:18:33.422Z,6.55
2018-03-19T14:21:01.882Z,6.07
2018-03-19T14:23:30.481Z,6.18
2018-03-19T14:25:58.931Z,6.34
2018-03-19T14:28:27.367Z,6.28
2018-03-19T14:30:55.862Z,5.68
2018-03-19T14:33:24.285Z,6.09
2018-03-19T14:35:52.684Z,6.03
2018-03-19T14:38:21.162Z,5.93
2018-03-19T14:40:49.611Z,6.04
2018-03-19T14:43:18.091Z,5.72
2018-03-19T14:45:50.282Z,6.72
2018-03-19T14:48:19.910Z,5.49
2018-03-19T14:50:49.233Z,6.31
2018-03-19T14:55:55.300Z,5.89
2018-03-19T14:58:28.003Z,5.74
2018-03-19T15:06:04.316Z,6.17
2018-03-19T15:08:32.753Z,5.50
2018-03-19T15:11:01.123Z,5.25
2018-03-19T15:13:29.606Z,5.21
2018-03-19T15:15:58.036Z,5.91
2018-03-19T15:18:26.449Z,5.58
2018-03-19T15:20:54.825Z,4.71
2018-03-19T15:23:23.245Z,4.86
2018-03-19T15:25:52.010Z,5.12
2018-03-19T15:28:20.435Z,5.73
2018-03-19T15:30:48.820Z,5.72
2018-03-19T15:33:17.236Z,5.41
2018-03-19T15:35:45.619Z,4.47
2018-03-19T15:38:14.402Z,5.32
2018-03-19T15:40:42.738Z,5.24
2018-03-19T15:43:11.127Z,4.42
2018-03-19T15:45:39.555Z,4.94
2018-03-19T15:48:07.999Z,4.42
2018-03-19T15:50:36.554Z,4.24
2018-03-19T15:53:05.014Z,4.44
2018-03-19T15:55:33.418Z,4.42
2018-03-19T15:58:01.833Z,4.96
2018-03-19T16:00:30.250Z,4.57
2018-03-19T16:02:58.684Z,5.13
2018-03-19T16:05:27.069Z,4.24
2018-03-19T16:07:55.443Z,4.43
2018-03-19T16:10:23.829Z,4.15
2018-03-19T16:12:52.240Z,3.91
2018-03-19T16:15:20.705Z,4.56
2018-03-19T16:17:49.084Z,3.68
2018-03-19T16:20:17.572Z,3.93
2018-03-19T16:22:45.943Z,4.32
2018-03-19T16:25:14.346Z,4.86
2018-03-19T16:27:42.738Z,4.76
2018-03-19T16:30:11.114Z,4.71
2018-03-19T16:32:39.486Z,4.43
2018-03-19T16:35:07.925Z,4.38
2018-03-19T16:37:36.444Z,4.08
2018-03-19T16:40:04.817Z,3.50
2018-03-19T16:42:33.218Z,4.50
2018-03-19T16:45:01.576Z,4.14
2018-03-19T16:47:29.954Z,3.81
2018-03-19T16:49:58.694Z,4.44
2018-03-19T16:52:27.085Z,4.63
2018-03-19T16:54:55.471Z,3.95
2018-03-19T16:57:23.847Z,3.99
2018-03-19T16:59:52.307Z,4.46
2018-03-19T17:02:20.752Z,3.92
2018-03-19T17:04:49.128Z,3.37
2018-03-19T17:07:17.635Z,4.00
2018-03-19T17:09:45.997Z,3.86
2018-03-19T17:12:14.365Z,3.17
2018-03-19T17:14:42.804Z,3.27
2018-03-19T17:17:11.167Z,3.33
2018-03-19T17:19:39.531Z,3.03
2018-03-19T17:22:07.924Z,3.22
2018-03-19T17:24:36.284Z,2.90
2018-03-19T17:27:04.641Z,3.46
2018-03-19T17:29:33.064Z,3.98
2018-03-19T17:32:01.738Z,3.43
2018-03-19T17:34:30.151Z,3.52
2018-03-19T17:36:58.596Z,2.96
2018-03-19T17:39:26.990Z,2.97
2018-03-19T17:41:55.429Z,3.26
2018-03-19T17:44:23.902Z,2.66
2018-03-19T17:46:52.296Z,2.75
2018-03-19T17:49:20.702Z,3.08
2018-03-19T17:51:49.243Z,2.44
2018-03-19T17:54:17.659Z,2.06
2018-03-19T17:56:46.067Z,2.78
2018-03-19T17:59:14.604Z,2.46
2018-03-19T18:01:42.996Z,2.73
2018-03-19T18:04:11.392Z,3.01
2018-03-19T18:06:39.796Z,3.00
2018-03-19T18:09:08.285Z,3.02
2018-03-19T18:11:36.721Z,3.19
2018-03-19T18:14:05.192Z,3.31
2018-03-19T18:16:33.689Z,3.76
2018-03-19T18:19:02.101Z,2.18
2018-03-19T18:21:30.573Z,2.89
2018-03-19T18:23:59.037Z,3.34
2018-03-19T18:26:27.505Z,2.82
2018-03-19T18:28:55.910Z,2.69
2018-03-19T18:31:24.321Z,2.59
2018-03-19T18:33:52.717Z,2.91
2018-03-19T18:36:21.167Z,3.43
2018-03-19T18:38:49.633Z,2.88
2018-03-19T18:41:18.044Z,3.03
2018-03-19T18:43:46.436Z,2.76
2018-03-19T18:46:14.824Z,2.67
2018-03-19T18:48:43.307Z,2.97
2018-03-19T18:51:11.696Z,2.95
2018-03-19T18:53:40.247Z,3.27
2018-03-19T18:56:08.700Z,3.05
2018-03-19T18:58:37.204Z,3.29
2018-03-19T19:01:05.618Z,3.24
2018-03-19T19:03:34.032Z,2.66
2018-03-19T19:06:02.582Z,2.71
2018-03-19T19:08:30.984Z,3.01
2018-03-19T19:10:59.384Z,3.09
2018-03-19T19:13:28.079Z,2.76
2018-03-19T19:15:56.580Z,2.93
2018-03-19T19:18:25.076Z,2.97
2018-03-19T19:20:53.667Z,2.63
2018-03-19T19:23:22.081Z,2.82
2018-03-19T19:25:50.483Z,2.21
2018-03-19T19:28:18.906Z,2.39
2018-03-19T19:30:48.047Z,2.08
2018-03-19T19:33:16.452Z,2.87
2018-03-19T19:35:44.863Z,2.75
2018-03-19T19:38:13.260Z,2.68
2018-03-19T19:40:41.723Z,2.24
2018-03-19T19:43:10.163Z,2.27
2018-03-19T19:45:38.545Z,2.72
2018-03-19T19:48:07.023Z,2.52
2018-03-19T19:50:36.489Z,2.71
2018-03-19T19:53:05.030Z,2.49
2018-03-19T19:55:33.434Z,2.20
2018-03-19T19:58:02.736Z,1.95
2018-03-19T20:00:31.151Z,1.83
2018-03-19T20:02:59.585Z,1.70
2018-03-19T20:05:28.032Z,1.65
2018-03-19T20:07:56.449Z,1.71
2018-03-19T20:10:24.853Z,1.05
2018-03-19T20:12:53.348Z,1.51
2018-03-19T20:15:21.743Z,1.03
2018-03-19T20:17:50.208Z,1.21
2018-03-19T20:20:18.644Z,1.20
2018-03-19T20:22:47.061Z,0.74
2018-03-19T20:25:15.492Z,0.84
2018-03-19T20:27:43.971Z,0.79
2018-03-19T20:30:12.462Z,0.50
2018-03-19T20:32:40.876Z,0.52
2018-03-19T20:35:09.312Z,0.57
2018-03-19T20:37:37.748Z,0.59
2018-03-19T20:40:06.227Z,0.50
2018-03-19T20:42:34.732Z,0.26
2018-03-19T20:45:03.118Z,0.21
2018-03-19T20:47:31.569Z,0.45
2018-03-19T20:49:59.964Z,0.19
2018-03-19T20:52:28.390Z,0.50
2018-03-19T20:54:56.951Z,0.03
2018-03-19T20:57:25.329Z,0.33
2018-03-19T20:59:53.728Z,-0.12
2018-03-19T21:02:22.172Z,-0.31
2018-03-19T21:04:50.560Z,-0.11
2018-03-19T21:07:19.086Z,-0.55
2018-03-19T21:09:47.529Z,-0.76
2018-03-19T21:12:16.383Z,-0.12
2018-03-19T21:14:44.785Z,-0.43
2018-03-19T21:17:13.185Z,-0.40
2018-03-19T21:19:41.588Z,-0.13
2018-03-19T21:22:09.994Z,-0.49
2018-03-19T21:24:38.856Z,-0.21
2018-03-19T21:27:07.272Z,-0.72
2018-03-19T21:29:35.633Z,-0.63
2018-03-19T21:32:04.042Z,-0.88
2018-03-19T21:34:32.404Z,-0.90
2018-03-19T21:37:00.837Z,-0.77
2018-03-19T21:39:29.317Z,-0.80
2018-03-19T21:41:57.724Z,-0.86
2018-03-19T21:44:26.133Z,-0.80
2018-03-19T21:46:54.603Z,-0.97
2018-03-19T21:49:23.079Z,-0.86
2018-03-19T21:51:52.280Z,-0.72
2018-03-19T21:54:20.668Z,-0.81
2018-03-19T21:56:49.110Z,-0.97
2018-03-19T21:59:17.721Z,-0.88
2018-03-19T22:01:46.131Z,-1.26
2018-03-19T22:04:14.543Z,-1.45
2018-03-19T22:06:42.959Z,-1.49
2018-03-19T22:09:15.593Z,-1.28
2018-03-19T22:11:44.068Z,-1.59
2018-03-19T22:14:12.496Z,-1.23
2018-03-19T22:16:40.871Z,-1.17
2018-03-19T22:19:09.412Z,-1.38
2018-03-19T22:21:37.843Z,-1.48
2018-03-19T22:24:06.305Z,-1.38
2018-03-19T22:26:34.852Z,-1.63
2018-03-19T22:29:03.316Z,-1.62
2018-03-19T22:31:31.701Z,-1.33
2018-03-19T22:34:00.086Z,-1.82
2018-03-19T22:36:28.503Z,-1.58
2018-03-19T22:38:56.887Z,-1.35
2018-03-19T22:41:25.380Z,-1.51
2018-03-19T22:43:53.832Z,-1.54
2018-03-19T22:46:22.201Z,-1.71
2018-03-19T22:48:50.598Z,-2.29
2018-03-19T22:51:19.004Z,-1.62
2018-03-19T22:53:47.515Z,-2.15
2018-03-19T22:56:15.913Z,-1.82
2018-03-19T22:58:44.324Z,-2.17
2018-03-19T23:01:12.814Z,-2.40
2018-03-19T23:03:41.205Z,-1.97
2018-03-19T23:06:09.668Z,-2.08
2018-03-19T23:08:38.072Z,-1.76
2018-03-19T23:11:06.468Z,-1.96
2018-03-19T23:13:34.903Z,-1.86
2018-03-19T23:16:03.306Z,-1.82
2018-03-19T23:18:31.746Z,-2.30
2018-03-19T23:21:00.144Z,-2.31
2018-03-19T23:23:28.607Z,-2.40
2018-03-19T23:25:57.061Z,-2.29
2018-03-19T23:28:25.457Z,-2.17
2018-03-19T23:30:53.932Z,-2.36
2018-03-19T23:33:22.356Z,-2.60
2018-03-19T23:35:50.932Z,-2.27
2018-03-19T23:38:19.368Z,-2.38
2018-03-19T23:40:47.751Z,-2.40
2018-03-19T23:43:16.163Z,-2.18
2018-03-19T23:45:44.593Z,-2.55
2018-03-19T23:48:13.079Z,-2.65
2018-03-19T23:50:41.471Z,-2.58
2018-03-19T23:53:09.908Z,-2.33
2018-03-19T23:55:38.324Z,-2.31
2018-03-19T23:58:06.784Z,-2.14
